Time;durP1;ratioP1;P1;durP2;ratioP2;P2;SDS_P1;SDS_P2;PMS_P1;PMS_P2;Temp;Humidity;BMP_temperature;BMP_pressure;BME280_temperature;BME280_humidity;BME280_pressure;Samples;Min_cycle;Max_cycle;Signal;HPM_P1;HPM_P2
2022/01/09 05:01:53;;;;;;;3.28;2.67;;;2.70;99.90;;;;;;5220312;23;20252;-70
2022/01/09 05:04:20;;;;;;;2.58;2.45;;;2.60;99.90;;;;;;4937133;29;20270;-70
2022/01/09 05:06:47;;;;;;;4.47;4.18;;;2.60;99.90;;;;;;4930128;29;20206;-70
2022/01/09 05:09:13;;;;;;;2.53;2.45;;;2.50;99.90;;;;;;4929162;29;20563;-69
2022/01/09 05:11:40;;;;;;;3.92;3.63;;;2.40;99.90;;;;;;4929108;29;20652;-70
2022/01/09 05:14:07;;;;;;;2.05;1.95;;;2.40;99.90;;;;;;4911736;29;20215;-70
2022/01/09 05:16:33;;;;;;;2.70;2.60;;;2.30;99.90;;;;;;4906977;29;20207;-70
2022/01/09 05:19:05;;;;;;;4.82;4.43;;;2.20;99.90;;;;;;4917377;29;20238;-70
2022/01/09 05:21:32;;;;;;;4.40;4.00;;;2.20;99.90;;;;;;4912704;29;20321;-69
2022/01/09 05:23:59;;;;;;;3.28;2.97;;;2.10;99.90;;;;;;4915929;29;20202;-69
2022/01/09 05:26:25;;;;;;;4.78;4.47;;;2.10;99.90;;;;;;4916452;29;20636;-70
2022/01/09 05:28:52;;;;;;;3.42;3.22;;;2.10;99.90;;;;;;4903440;29;20222;-69
2022/01/09 05:31:18;;;;;;;4.70;4.20;;;2.10;99.90;;;;;;4902877;29;20286;-69
2022/01/09 05:33:45;;;;;;;4.07;3.72;;;2.00;99.90;;;;;;4908424;29;20254;-69
2022/01/09 05:36:13;;;;;;;5.53;5.13;;;2.00;99.90;;;;;;4917689;29;20225;-69
2022/01/09 05:38:40;;;;;;;5.93;3.70;;;2.00;99.90;;;;;;4905849;29;20740;-70
2022/01/09 05:41:07;;;;;;;2.78;2.67;;;2.00;99.90;;;;;;4896987;29;20239;-70
2022/01/09 05:43:33;;;;;;;4.25;3.28;;;2.00;99.90;;;;;;4907107;29;20219;-70
2022/01/09 05:46:00;;;;;;;4.20;3.90;;;1.90;99.90;;;;;;4897512;29;20533;-70
2022/01/09 05:48:27;;;;;;;5.32;4.80;;;1.90;99.90;;;;;;4904675;29;20277;-70
2022/01/09 05:50:53;;;;;;;6.97;6.28;;;1.90;99.90;;;;;;4911696;29;20231;-70
2022/01/09 05:53:21;;;;;;;5.65;5.07;;;1.90;99.90;;;;;;4904634;29;20222;-70
2022/01/09 05:55:48;;;;;;;6.72;6.07;;;1.90;99.90;;;;;;4916693;29;20214;-71
2022/01/09 05:58:15;;;;;;;8.00;5.30;;;1.90;99.90;;;;;;4901677;29;20246;-69
2022/01/09 06:00:42;;;;;;;5.45;4.75;;;1.90;99.90;;;;;;4913288;29;20237;-69
2022/01/09 06:03:08;;;;;;;9.32;5.75;;;1.90;99.90;;;;;;4901139;29;20196;-70
2022/01/09 06:05:35;;;;;;;8.32;4.88;;;1.80;99.90;;;;;;4914216;29;20589;-70
2022/01/09 06:08:02;;;;;;;6.28;5.78;;;1.80;99.90;;;;;;4924714;29;20205;-69
2022/01/09 06:10:30;;;;;;;9.82;7.97;;;1.80;99.90;;;;;;4899622;29;20281;-70
2022/01/09 06:12:57;;;;;;;5.28;4.57;;;1.80;99.90;;;;;;4896965;29;20250;-68
2022/01/09 06:15:23;;;;;;;6.97;5.45;;;1.80;99.90;;;;;;4909681;29;20215;-68
2022/01/09 06:17:50;;;;;;;3.10;2.90;;;1.80;99.90;;;;;;4914253;29;20207;-68
2022/01/09 06:20:17;;;;;;;7.55;5.65;;;1.80;99.90;;;;;;4902871;29;20211;-69
2022/01/09 06:22:45;;;;;;;9.52;7.72;;;1.80;99.90;;;;;;4895803;29;20203;-69
2022/01/09 06:25:12;;;;;;;5.38;4.90;;;1.80;99.90;;;;;;4906778;29;20241;-69
2022/01/09 06:27:41;;;;;;;10.02;7.13;;;1.80;99.90;;;;;;4912697;29;20564;-69
2022/01/09 06:30:08;;;;;;;7.18;6.40;;;1.80;99.90;;;;;;4911192;29;20199;-70
2022/01/09 06:32:35;;;;;;;9.18;8.25;;;1.80;99.90;;;;;;4904536;29;20227;-69
2022/01/09 06:35:03;;;;;;;7.90;6.28;;;1.80;99.90;;;;;;4904056;29;20214;-69
2022/01/09 06:37:30;;;;;;;8.80;8.10;;;1.80;99.90;;;;;;4913610;29;20556;-70
2022/01/09 06:39:57;;;;;;;4.82;4.32;;;1.80;99.90;;;;;;4907864;29;20214;-70
2022/01/09 06:42:23;;;;;;;11.05;9.13;;;1.80;99.90;;;;;;4906288;29;20278;-70
2022/01/09 06:44:51;;;;;;;7.15;6.45;;;1.80;99.90;;;;;;4914249;29;20206;-69
2022/01/09 06:47:18;;;;;;;10.07;8.25;;;1.80;99.90;;;;;;4913608;29;20214;-69
2022/01/09 06:49:46;;;;;;;7.68;6.97;;;1.80;99.90;;;;;;4910410;29;20218;-70
2022/01/09 06:52:12;;;;;;;6.68;5.93;;;1.80;99.90;;;;;;4895279;29;20401;-69
2022/01/09 06:54:39;;;;;;;9.27;8.27;;;1.90;99.90;;;;;;4898243;29;20251;-70
2022/01/09 06:57:06;;;;;;;6.50;5.80;;;1.90;99.90;;;;;;4913914;29;20266;-69
2022/01/09 06:59:33;;;;;;;7.70;6.90;;;1.90;99.90;;;;;;4908942;29;20295;-69
2022/01/09 07:02:01;;;;;;;7.60;6.90;;;1.90;99.90;;;;;;4912863;29;20662;-70
2022/01/09 07:04:27;;;;;;;8.55;7.70;;;1.90;99.90;;;;;;4922417;29;20216;-70
2022/01/09 07:06:54;;;;;;;12.90;9.63;;;1.90;99.90;;;;;;4906782;29;20207;-69
2022/01/09 07:09:22;;;;;;;10.55;9.40;;;1.90;99.90;;;;;;4895615;29;20219;-69
2022/01/09 07:11:49;;;;;;;9.50;8.55;;;1.90;99.90;;;;;;4895425;29;20235;-69
2022/01/09 07:14:16;;;;;;;13.15;8.65;;;1.90;99.90;;;;;;4911767;29;20218;-70
2022/01/09 07:16:43;;;;;;;7.97;7.28;;;1.90;99.90;;;;;;4913691;29;20214;-70
2022/01/09 07:19:11;;;;;;;17.13;10.65;;;2.00;99.90;;;;;;4899027;29;20626;-70
2022/01/09 07:21:37;;;;;;;12.52;9.65;;;2.00;99.90;;;;;;4894886;29;20674;-69
2022/01/09 07:24:05;;;;;;;11.05;9.38;;;2.00;99.90;;;;;;4899753;29;20278;-70
2022/01/09 07:26:31;;;;;;;14.57;9.40;;;2.00;99.90;;;;;;4895480;29;20301;-69
2022/01/09 07:28:58;;;;;;;11.80;8.63;;;2.00;99.90;;;;;;4901451;29;20255;-70
2022/01/09 07:31:25;;;;;;;13.35;9.23;;;2.00;99.90;;;;;;4911802;29;20290;-70
2022/01/09 07:33:51;;;;;;;11.30;8.57;;;2.00;99.90;;;;;;4912423;29;20263;-69
2022/01/09 07:36:19;;;;;;;8.07;5.82;;;2.00;99.90;;;;;;4924655;29;20221;-69
2022/01/09 07:38:46;;;;;;;11.25;9.70;;;2.00;99.90;;;;;;4914554;29;20207;-69
2022/01/09 07:41:14;;;;;;;10.73;9.48;;;2.00;99.90;;;;;;4898733;29;20235;-70
2022/01/09 07:43:41;;;;;;;8.77;7.75;;;2.00;99.90;;;;;;4906721;29;20203;-70
2022/01/09 07:46:08;;;;;;;10.65;9.45;;;2.10;99.90;;;;;;4917817;29;20217;-69
2022/01/09 07:48:35;;;;;;;11.20;9.23;;;2.10;99.90;;;;;;4910057;29;20203;-69
2022/01/09 07:51:01;;;;;;;8.38;7.55;;;2.10;99.90;;;;;;4901678;29;20214;-69
2022/01/09 07:53:29;;;;;;;11.55;10.23;;;2.10;99.90;;;;;;4916789;29;20230;-69
2022/01/09 07:55:56;;;;;;;11.70;10.50;;;2.10;99.90;;;;;;4915310;29;20210;-69
2022/01/09 07:58:23;;;;;;;11.55;8.63;;;2.10;99.90;;;;;;4900408;29;20211;-70
2022/01/09 08:00:50;;;;;;;11.95;8.32;;;2.10;99.90;;;;;;4898395;29;20243;-69
2022/01/09 08:03:16;;;;;;;14.77;10.68;;;2.10;99.90;;;;;;4916594;29;20545;-70
2022/01/09 08:05:43;;;;;;;9.43;8.38;;;2.10;99.90;;;;;;4917682;29;20215;-69
2022/01/09 08:08:10;;;;;;;11.40;10.23;;;2.20;99.90;;;;;;4903884;29;20207;-69
2022/01/09 08:10:38;;;;;;;11.27;9.95;;;2.20;99.90;;;;;;4913503;29;20222;-69
2022/01/09 08:13:04;;;;;;;15.60;10.95;;;2.20;99.90;;;;;;4919845;29;20631;-69
2022/01/09 08:15:31;;;;;;;13.65;10.50;;;2.20;99.90;;;;;;4920559;29;20240;-69
2022/01/09 08:17:58;;;;;;;9.52;8.63;;;2.20;99.90;;;;;;4935842;29;20218;-68
2022/01/09 08:20:25;;;;;;;13.32;10.98;;;2.20;99.90;;;;;;4916514;29;20278;-69
2022/01/09 08:22:51;;;;;;;14.25;11.30;;;2.20;99.90;;;;;;4916686;29;20227;-71
2022/01/09 08:25:20;;;;;;;10.80;9.63;;;2.20;99.90;;;;;;4915728;29;20274;-69
2022/01/09 08:27:48;;;;;;;10.95;8.63;;;2.30;99.90;;;;;;4901230;29;20199;-71
2022/01/09 08:30:16;;;;;;;13.27;10.50;;;2.30;99.90;;;;;;4904363;29;20255;-70
2022/01/09 08:32:43;;;;;;;17.80;9.50;;;2.30;99.90;;;;;;4917395;29;20221;-70
2022/01/09 08:35:10;;;;;;;20.02;14.23;;;2.30;99.90;;;;;;4913582;29;20222;-70
2022/01/09 08:37:41;;;;;;;14.27;12.05;;;2.30;99.90;;;;;;4897436;29;20207;-69
2022/01/09 08:40:09;;;;;;;23.73;17.70;;;2.40;99.90;;;;;;4919085;29;20234;-69
2022/01/09 08:42:36;;;;;;;12.13;9.38;;;2.40;99.90;;;;;;4903992;29;20223;-69
2022/01/09 08:45:05;;;;;;;16.15;13.30;;;2.40;99.90;;;;;;4909358;29;20414;-69
2022/01/09 08:47:35;;;;;;;15.20;12.13;;;2.40;99.90;;;;;;4919423;29;20232;-70
2022/01/09 08:50:02;;;;;;;13.10;9.80;;;2.40;99.90;;;;;;4900186;29;20287;-69
2022/01/09 08:52:28;;;;;;;22.77;13.77;;;2.40;99.90;;;;;;4914316;29;20230;-70
2022/01/09 08:54:55;;;;;;;13.43;11.40;;;2.40;99.90;;;;;;4920956;29;20501;-70
2022/01/09 08:57:24;;;;;;;16.35;13.30;;;2.50;99.90;;;;;;4913159;29;20474;-69
2022/01/09 08:59:50;;;;;;;16.13;12.25;;;2.40;99.90;;;;;;4922133;29;20664;-70
2022/01/09 09:02:18;;;;;;;18.70;12.68;;;2.40;99.90;;;;;;4915748;29;20310;-69
2022/01/09 09:04:45;;;;;;;19.33;12.70;;;2.40;99.90;;;;;;4903222;29;20216;-69
2022/01/09 09:07:12;;;;;;;17.15;13.25;;;2.40;99.90;;;;;;4897797;29;20232;-70
2022/01/09 09:09:39;;;;;;;14.10;11.70;;;2.40;99.90;;;;;;4901027;29;20295;-69
2022/01/09 09:12:06;;;;;;;16.17;10.75;;;2.40;99.90;;;;;;4906773;29;20250;-69
2022/01/09 09:14:33;;;;;;;16.05;12.43;;;2.40;99.90;;;;;;4906741;29;20215;-69
2022/01/09 09:17:00;;;;;;;14.80;11.75;;;2.40;99.90;;;;;;4908293;29;20211;-68
2022/01/09 09:19:28;;;;;;;16.67;11.68;;;2.40;99.90;;;;;;4914123;29;20207;-69
2022/01/09 09:21:55;;;;;;;15.63;12.30;;;2.40;99.90;;;;;;4914426;29;20258;-69
2022/01/09 09:24:21;;;;;;;13.85;10.88;;;2.40;99.90;;;;;;4908591;29;20207;-69
2022/01/09 09:26:48;;;;;;;14.13;10.68;;;2.40;99.90;;;;;;4898823;29;20208;-69
2022/01/09 09:29:15;;;;;;;15.23;10.55;;;2.40;99.90;;;;;;4920167;29;20225;-69
2022/01/09 09:31:41;;;;;;;14.82;11.50;;;2.40;99.90;;;;;;4926832;29;20230;-69
2022/01/09 09:34:08;;;;;;;18.48;12.43;;;2.50;99.90;;;;;;4923618;29;20238;-69
2022/01/09 09:36:36;;;;;;;14.02;11.23;;;2.40;99.90;;;;;;4919210;29;20271;-69
2022/01/09 09:39:07;;;;;;;14.20;11.73;;;2.40;99.90;;;;;;4905927;29;20207;-69
2022/01/09 09:41:33;;;;;;;14.93;11.55;;;2.50;99.90;;;;;;4925105;29;20238;-69
2022/01/09 09:44:01;;;;;;;19.70;14.15;;;2.50;99.90;;;;;;4913242;29;20214;-69
2022/01/09 09:46:28;;;;;;;20.30;14.07;;;2.60;99.90;;;;;;4932787;29;20210;-69
2022/01/09 09:48:55;;;;;;;16.20;12.60;;;2.50;99.90;;;;;;4907711;29;20226;-69
2022/01/09 09:51:24;;;;;;;23.67;14.60;;;2.50;99.90;;;;;;4905199;29;20239;-69
2022/01/09 09:53:52;;;;;;;15.50;12.07;;;2.60;99.90;;;;;;4899381;29;20735;-69
2022/01/09 09:56:19;;;;;;;19.52;14.27;;;2.60;99.90;;;;;;4901172;29;20656;-69
2022/01/09 09:58:47;;;;;;;19.60;14.65;;;2.60;99.90;;;;;;4910050;29;20216;-70
2022/01/09 10:01:23;;;;;;;20.52;13.45;;;2.60;99.90;;;;;;4925320;29;20244;-69
2022/01/09 10:03:55;;;;;;;24.50;15.27;;;2.70;99.90;;;;;;4895968;29;20222;-70
2022/01/09 10:06:38;;;;;;;24.60;14.55;;;2.70;99.90;;;;;;4903653;29;20269;-69
2022/01/09 10:09:11;;;;;;;22.63;15.50;;;2.70;99.90;;;;;;4911587;29;20203;-70
2022/01/09 10:11:49;;;;;;;30.50;19.08;;;2.70;99.90;;;;;;4902324;29;20293;-70
2022/01/09 10:14:18;;;;;;;30.58;19.67;;;2.80;99.90;;;;;;4917853;29;20276;-70
2022/01/09 10:17:12;;;;;;;14.45;11.02;;;2.80;99.90;;;;;;4919999;29;20206;-70
2022/01/09 10:19:47;;;;;;;19.40;11.93;;;2.80;99.90;;;;;;4903837;29;20677;-70
2022/01/09 10:22:36;;;;;;;19.80;14.18;;;2.80;99.90;;;;;;4895599;29;20234;-70
2022/01/09 10:25:26;;;;;;;16.52;13.38;;;2.80;99.90;;;;;;4903089;29;20195;-70
2022/01/09 10:28:02;;;;;;;16.60;13.60;;;2.90;99.90;;;;;;4910377;29;20250;-69
2022/01/09 10:30:31;;;;;;;15.02;12.80;;;2.90;99.90;;;;;;4910949;29;20592;-70
2022/01/09 10:32:59;;;;;;;16.10;11.38;;;2.90;99.90;;;;;;4911244;29;20211;-70
2022/01/09 10:35:27;;;;;;;13.45;12.07;;;2.90;99.90;;;;;;4922347;29;20304;-69
2022/01/09 10:38:07;;;;;;;12.80;10.55;;;3.00;99.90;;;;;;4922717;29;20231;-70
2022/01/09 10:40:38;;;;;;;25.85;13.63;;;3.00;99.90;;;;;;4921732;29;20277;-69
2022/01/09 10:43:07;;;;;;;20.58;12.68;;;3.00;99.90;;;;;;4915247;29;20679;-69
2022/01/09 10:45:37;;;;;;;14.23;11.45;;;3.10;99.90;;;;;;4896334;29;20566;-70
2022/01/09 10:48:06;;;;;;;21.98;12.98;;;3.10;99.90;;;;;;4902386;29;20203;-69
2022/01/09 10:50:37;;;;;;;20.65;13.13;;;3.10;99.90;;;;;;4913617;29;20371;-71
2022/01/09 10:53:24;;;;;;;22.77;14.10;;;3.20;99.90;;;;;;4896402;29;20211;-71
2022/01/09 10:56:05;;;;;;;19.45;12.88;;;3.10;99.90;;;;;;4902681;29;20207;-71
2022/01/09 10:58:35;;;;;;;32.85;20.02;;;3.20;99.90;;;;;;4905290;29;20617;-69
2022/01/09 11:01:10;;;;;;;13.68;11.18;;;3.20;99.90;;;;;;4910132;29;20322;-69
2022/01/09 11:03:37;;;;;;;16.67;13.32;;;3.20;99.90;;;;;;4906943;29;20222;-70
2022/01/09 11:06:04;;;;;;;11.55;9.35;;;3.20;99.90;;;;;;4904509;29;20602;-69
2022/01/09 11:08:31;;;;;;;11.35;9.32;;;3.20;99.90;;;;;;4908825;29;21964;-69
2022/01/09 11:10:59;;;;;;;18.42;13.60;;;3.20;99.90;;;;;;4900753;29;20337;-69
2022/01/09 11:13:28;;;;;;;11.57;10.30;;;3.20;99.90;;;;;;4902508;29;20237;-69
2022/01/09 11:18:43;;;;;;;11.15;9.57;;;3.20;99.90;;;;;;4914125;29;20206;-70
2022/01/09 11:21:10;;;;;;;9.05;8.20;;;3.20;99.90;;;;;;4893204;29;20294;-69
2022/01/09 11:23:53;;;;;;;9.18;8.18;;;3.20;99.90;;;;;;4897260;29;20202;-70
2022/01/09 11:26:19;;;;;;;9.32;7.65;;;3.30;99.90;;;;;;4904912;29;20799;-69
2022/01/09 11:28:51;;;;;;;15.52;11.90;;;3.30;99.90;;;;;;4902321;29;20199;-68
2022/01/09 11:31:31;;;;;;;11.82;9.88;;;3.40;99.90;;;;;;4903354;29;20230;-69
2022/01/09 11:34:11;;;;;;;11.07;9.85;;;3.40;99.90;;;;;;4910415;29;20304;-69
2022/01/09 11:36:44;;;;;;;13.80;9.82;;;3.40;99.90;;;;;;4914053;29;20201;-68
2022/01/09 11:39:19;;;;;;;9.10;8.13;;;3.40;99.90;;;;;;4912093;29;20349;-68
2022/01/09 11:42:04;;;;;;;9.77;8.15;;;3.40;99.90;;;;;;4904337;29;20565;-70
2022/01/09 11:44:33;;;;;;;8.18;7.28;;;3.40;99.90;;;;;;4912434;29;20218;-69
2022/01/09 11:47:05;;;;;;;7.03;6.43;;;3.40;99.90;;;;;;4898986;29;20267;-70
2022/01/09 11:49:39;;;;;;;8.05;6.57;;;3.40;99.90;;;;;;4896669;29;20637;-67
2022/01/09 11:52:06;;;;;;;8.15;7.05;;;3.40;99.90;;;;;;4897493;29;20258;-70
2022/01/09 11:54:49;;;;;;;8.90;8.00;;;3.50;99.90;;;;;;4908564;29;20581;-69
2022/01/09 11:57:20;;;;;;;9.43;8.15;;;3.50;99.90;;;;;;4918583;29;20226;-70
2022/01/09 11:59:51;;;;;;;10.18;8.18;;;3.50;99.90;;;;;;4900928;29;20241;-69
2022/01/09 12:02:33;;;;;;;9.07;7.05;;;3.50;99.90;;;;;;4902753;29;20230;-70
2022/01/09 12:05:02;;;;;;;5.70;5.28;;;3.50;99.90;;;;;;4913696;29;20673;-69
2022/01/09 12:08:06;;;;;;;6.50;5.90;;;3.50;99.90;;;;;;4913606;29;20226;-70
2022/01/09 12:10:49;;;;;;;6.47;5.63;;;3.50;99.90;;;;;;4908279;29;20218;-69
2022/01/09 12:13:38;;;;;;;6.55;5.90;;;3.50;99.90;;;;;;4904791;29;20614;-71
2022/01/09 12:16:06;;;;;;;14.00;9.13;;;3.50;99.90;;;;;;4910478;29;20222;-71
2022/01/09 12:18:44;;;;;;;7.80;7.00;;;3.60;99.90;;;;;;4894923;29;20215;-70
2022/01/09 12:21:37;;;;;;;6.45;5.85;;;3.60;99.90;;;;;;4898996;29;20705;-70
2022/01/09 12:24:37;;;;;;;6.65;6.05;;;3.60;99.90;;;;;;4917341;29;20217;-70
2022/01/09 12:27:38;;;;;;;8.25;5.72;;;3.70;99.90;;;;;;4909935;29;20321;-70
2022/01/09 12:30:07;;;;;;;9.63;7.53;;;3.70;99.90;;;;;;4917840;29;20446;-70
2022/01/09 12:32:44;;;;;;;11.45;7.78;;;3.70;99.90;;;;;;4906411;29;20243;-68
2022/01/09 12:35:16;;;;;;;10.65;8.10;;;3.80;99.90;;;;;;4915809;29;20312;-70
2022/01/09 12:37:47;;;;;;;7.68;6.97;;;3.80;99.90;;;;;;4904523;29;20226;-70
2022/01/09 12:40:16;;;;;;;12.68;9.45;;;3.80;99.90;;;;;;4916851;29;20251;-69
2022/01/09 12:42:46;;;;;;;7.55;5.30;;;3.90;99.90;;;;;;4898827;29;20637;-70
2022/01/09 12:45:13;;;;;;;9.13;7.30;;;3.90;99.90;;;;;;4915788;29;20217;-70
2022/01/09 12:47:41;;;;;;;8.52;7.75;;;4.00;99.90;;;;;;4899042;29;20317;-70
2022/01/09 12:50:08;;;;;;;8.77;7.85;;;4.00;99.90;;;;;;4897520;29;20211;-68
2022/01/09 12:52:35;;;;;;;7.50;6.95;;;4.00;99.90;;;;;;4915758;29;20235;-68
2022/01/09 12:55:06;;;;;;;8.57;7.15;;;4.10;99.90;;;;;;4898126;29;20227;-70
2022/01/09 12:57:50;;;;;;;7.13;6.40;;;4.10;99.90;;;;;;4900779;29;20349;-70
2022/01/09 13:00:16;;;;;;;5.95;5.30;;;4.20;99.90;;;;;;4905889;29;20203;-69
2022/01/09 13:02:53;;;;;;;7.82;7.18;;;4.20;99.90;;;;;;4915087;29;20213;-69
2022/01/09 13:05:22;;;;;;;7.80;7.10;;;4.30;99.90;;;;;;4907523;29;20214;-70
2022/01/09 13:07:56;;;;;;;6.03;5.63;;;4.30;99.90;;;;;;4903056;29;20294;-69
2022/01/09 13:10:28;;;;;;;8.40;6.90;;;4.40;99.90;;;;;;4913446;29;20221;-70
2022/01/09 13:13:03;;;;;;;6.90;6.22;;;4.40;99.90;;;;;;4907681;29;20230;-70
2022/01/09 13:15:34;;;;;;;6.50;5.30;;;4.40;99.90;;;;;;4911929;29;20782;-71
2022/01/09 13:18:03;;;;;;;6.82;6.18;;;4.50;99.90;;;;;;4898011;29;20297;-70
2022/01/09 13:20:30;;;;;;;6.53;4.80;;;4.60;99.90;;;;;;4901687;29;20650;-70
2022/01/09 13:23:05;;;;;;;4.75;4.22;;;4.60;99.90;;;;;;4909514;29;20288;-69
2022/01/09 13:25:42;;;;;;;5.97;3.72;;;4.70;99.90;;;;;;4915124;29;20206;-69
2022/01/09 13:28:17;;;;;;;4.15;3.60;;;4.80;99.90;;;;;;4916312;29;20198;-69
2022/01/09 13:30:44;;;;;;;3.90;3.60;;;4.80;99.90;;;;;;4915586;29;20230;-69
2022/01/09 13:33:12;;;;;;;6.35;3.88;;;4.90;99.90;;;;;;4915121;29;20620;-68
2022/01/09 13:35:39;;;;;;;6.15;3.15;;;5.00;99.90;;;;;;4902074;29;20227;-68
2022/01/09 13:38:06;;;;;;;8.45;4.07;;;5.10;99.90;;;;;;4905701;29;20206;-69
2022/01/09 13:40:33;;;;;;;8.93;4.13;;;5.10;99.90;;;;;;4915172;29;20214;-69
2022/01/09 13:43:01;;;;;;;6.85;3.90;;;5.20;99.90;;;;;;4914032;29;20522;-69
2022/01/09 13:45:32;;;;;;;6.63;3.78;;;5.20;99.90;;;;;;4915605;29;20222;-69
2022/01/09 13:47:59;;;;;;;5.82;3.95;;;5.20;99.90;;;;;;4915243;29;20619;-68
2022/01/09 13:50:30;;;;;;;5.53;4.55;;;5.20;99.90;;;;;;4907552;29;20211;-68
2022/01/09 13:53:06;;;;;;;4.30;3.40;;;5.30;99.90;;;;;;4898979;29;20317;-68
2022/01/09 13:55:34;;;;;;;6.22;4.18;;;5.40;99.90;;;;;;4900757;29;20234;-68
2022/01/09 13:58:04;;;;;;;5.68;3.80;;;5.40;99.90;;;;;;4898167;29;20298;-68
2022/01/09 14:00:33;;;;;;;4.85;3.67;;;5.40;99.90;;;;;;4900541;29;20348;-69
2022/01/09 14:03:02;;;;;;;3.50;3.28;;;5.40;99.90;;;;;;4909425;29;20219;-69
2022/01/09 14:05:35;;;;;;;3.35;3.15;;;5.50;99.90;;;;;;4899808;29;20222;-68
2022/01/09 14:08:02;;;;;;;4.03;3.63;;;5.50;99.90;;;;;;4925694;29;20214;-68
2022/01/09 14:10:34;;;;;;;5.60;3.83;;;5.50;99.90;;;;;;4921030;29;20266;-68
2022/01/09 14:13:01;;;;;;;2.90;2.65;;;5.50;99.90;;;;;;4912890;29;20203;-68
2022/01/09 14:15:29;;;;;;;8.13;2.65;;;5.50;99.90;;;;;;4903657;29;20728;-67
2022/01/09 14:17:57;;;;;;;5.85;2.67;;;5.50;99.90;;;;;;4906646;29;20285;-68
2022/01/09 14:20:26;;;;;;;4.93;2.15;;;5.50;99.90;;;;;;4914816;29;20255;-68
2022/01/09 14:22:57;;;;;;;2.35;1.90;;;5.50;99.90;;;;;;4926247;29;20214;-68
2022/01/09 14:25:29;;;;;;;3.03;2.22;;;5.50;99.90;;;;;;4915427;29;20207;-68
2022/01/09 14:27:57;;;;;;;5.82;2.45;;;5.50;99.90;;;;;;4913863;29;20212;-68
2022/01/09 14:30:28;;;;;;;3.30;2.22;;;5.50;99.90;;;;;;4916825;29;20206;-68
2022/01/09 14:33:12;;;;;;;8.57;1.67;;;5.50;99.90;;;;;;4915853;29;20206;-68
2022/01/09 14:35:41;;;;;;;1.40;1.40;;;5.50;99.90;;;;;;4902407;29;20222;-68
2022/01/09 14:38:12;;;;;;;2.15;1.85;;;5.50;99.90;;;;;;4920745;29;20223;-68
2022/01/09 14:40:46;;;;;;;2.47;1.30;;;5.50;99.90;;;;;;4906621;29;20229;-68
2022/01/09 14:43:13;;;;;;;3.67;2.58;;;5.50;99.90;;;;;;4922370;29;20245;-69
2022/01/09 14:45:39;;;;;;;2.28;2.10;;;5.50;99.90;;;;;;4907287;29;20237;-69
2022/01/09 14:48:07;;;;;;;3.30;1.85;;;5.50;99.90;;;;;;4906779;29;20210;-69
2022/01/09 14:50:33;;;;;;;2.45;2.25;;;5.50;99.90;;;;;;4902216;29;20298;-69
2022/01/09 14:53:00;;;;;;;5.38;2.45;;;5.40;99.90;;;;;;4907400;29;20622;-68
2022/01/09 14:55:28;;;;;;;3.67;2.58;;;5.50;99.90;;;;;;4901677;29;20235;-68
2022/01/09 14:57:55;;;;;;;3.00;1.83;;;5.40;99.90;;;;;;4908712;29;20207;-69
2022/01/09 15:00:21;;;;;;;2.80;2.70;;;5.40;99.90;;;;;;4905443;29;20218;-69
2022/01/09 15:02:48;;;;;;;1.60;1.50;;;5.40;99.90;;;;;;4905837;29;20290;-70
2022/01/09 15:05:15;;;;;;;1.80;1.45;;;5.40;99.90;;;;;;4915105;29;20218;-71
2022/01/09 15:07:42;;;;;;;5.15;2.67;;;5.40;99.90;;;;;;4906032;29;20207;-68
2022/01/09 15:10:09;;;;;;;6.28;2.38;;;5.40;99.90;;;;;;4906223;29;20223;-69
2022/01/09 15:12:38;;;;;;;5.45;2.38;;;5.40;99.90;;;;;;4909726;29;20285;-69
2022/01/09 15:15:06;;;;;;;5.07;2.20;;;5.40;99.90;;;;;;4913437;29;20312;-69
2022/01/09 15:17:33;;;;;;;5.28;3.03;;;5.40;99.90;;;;;;4909948;29;20665;-69
2022/01/09 15:20:02;;;;;;;2.47;1.67;;;5.40;99.90;;;;;;4901319;29;20207;-69
2022/01/09 15:22:29;;;;;;;20.05;10.65;;;5.40;99.90;;;;;;4909870;29;20323;-68
2022/01/09 15:24:56;;;;;;;8.35;3.33;;;5.40;99.90;;;;;;4908611;29;20214;-68
2022/01/09 15:27:23;;;;;;;4.03;1.92;;;5.40;99.90;;;;;;4898656;29;20267;-69
2022/01/09 15:29:51;;;;;;;4.90;4.47;;;5.40;99.90;;;;;;4906659;29;20243;-69
2022/01/09 15:32:17;;;;;;;7.10;6.43;;;5.40;99.90;;;;;;4913088;29;20230;-69
2022/01/09 15:34:44;;;;;;;8.55;7.65;;;5.40;99.90;;;;;;4908879;29;20230;-68
2022/01/09 15:37:11;;;;;;;7.97;5.43;;;5.40;99.90;;;;;;4903938;29;20266;-68
2022/01/09 15:39:38;;;;;;;6.47;3.83;;;5.40;99.90;;;;;;4906424;29;20223;-68
2022/01/09 15:42:05;;;;;;;6.80;5.13;;;5.30;99.90;;;;;;4907075;29;20227;-68
2022/01/09 15:44:32;;;;;;;8.68;5.68;;;5.40;99.90;;;;;;4900288;29;20211;-68
2022/01/09 15:47:00;;;;;;;6.28;3.90;;;5.40;99.90;;;;;;4910008;29;20221;-69
2022/01/09 15:49:26;;;;;;;4.78;2.95;;;5.40;99.90;;;;;;4910121;29;20707;-70
2022/01/09 15:51:53;;;;;;;5.00;4.13;;;5.40;99.90;;;;;;4915231;29;20227;-69
2022/01/09 15:54:20;;;;;;;5.95;4.40;;;5.30;99.90;;;;;;4916663;29;20203;-69
2022/01/09 15:56:46;;;;;;;8.10;4.15;;;5.40;99.90;;;;;;4937726;29;20249;-69
2022/01/09 15:59:14;;;;;;;28.88;13.85;;;5.40;99.90;;;;;;4916656;29;20219;-69
2022/01/09 16:01:40;;;;;;;13.05;7.25;;;5.40;99.90;;;;;;4918851;29;20621;-69
2022/01/09 16:04:14;;;;;;;12.45;6.55;;;5.40;99.90;;;;;;4921719;29;20600;-69
2022/01/09 16:06:41;;;;;;;9.88;6.82;;;5.50;99.90;;;;;;4921627;29;20605;-68
2022/01/09 16:09:08;;;;;;;6.75;3.35;;;5.50;99.90;;;;;;4935830;29;20229;-68
2022/01/09 16:11:36;;;;;;;12.25;4.65;;;5.50;99.90;;;;;;4927135;29;20230;-68
2022/01/09 16:14:05;;;;;;;12.50;4.30;;;5.50;99.90;;;;;;4936166;29;20226;-70
2022/01/09 16:16:32;;;;;;;8.30;4.22;;;5.50;99.90;;;;;;4913149;29;20257;-68
2022/01/09 16:18:58;;;;;;;8.57;4.90;;;5.50;99.90;;;;;;4911487;29;20202;-69
2022/01/09 16:21:26;;;;;;;4.88;3.85;;;5.50;99.90;;;;;;4914752;29;20619;-69
2022/01/09 16:23:55;;;;;;;5.90;4.35;;;5.50;99.90;;;;;;4914150;29;20200;-68
2022/01/09 16:26:21;;;;;;;7.40;4.65;;;5.50;99.90;;;;;;4918383;29;20631;-69
2022/01/09 16:28:50;;;;;;;5.60;5.15;;;5.50;99.90;;;;;;4911776;29;20206;-69
2022/01/09 16:31:16;;;;;;;11.27;5.57;;;5.50;99.90;;;;;;4922682;29;20218;-68
2022/01/09 16:33:43;;;;;;;6.28;5.35;;;5.50;99.90;;;;;;4924551;29;20258;-69
2022/01/09 16:36:12;;;;;;;5.93;4.90;;;5.50;99.90;;;;;;4933636;29;20221;-69
2022/01/09 16:38:42;;;;;;;13.90;4.60;;;5.50;99.90;;;;;;4924670;29;20209;-69
2022/01/09 16:41:10;;;;;;;13.38;7.38;;;5.50;99.90;;;;;;4929063;29;20325;-69
2022/01/09 16:43:38;;;;;;;6.85;3.33;;;5.50;99.90;;;;;;4908326;29;20210;-68
2022/01/09 16:46:07;;;;;;;18.80;9.75;;;5.50;99.90;;;;;;4920764;29;20234;-69
2022/01/09 16:48:34;;;;;;;10.10;5.90;;;5.50;99.90;;;;;;4917504;29;20206;-69
2022/01/09 16:51:04;;;;;;;11.50;5.53;;;5.50;99.90;;;;;;4914303;29;20342;-68
2022/01/09 16:53:32;;;;;;;14.13;5.55;;;5.50;99.90;;;;;;4922272;29;20306;-69
2022/01/09 16:56:00;;;;;;;21.98;10.68;;;5.50;99.90;;;;;;4922827;29;20227;-69
2022/01/09 16:58:28;;;;;;;10.10;4.22;;;5.50;99.90;;;;;;4913188;29;20214;-69
2022/01/09 17:00:55;;;;;;;9.70;6.70;;;5.50;99.90;;;;;;4906614;29;20286;-69
2022/01/09 17:03:22;;;;;;;14.25;5.30;;;5.50;99.90;;;;;;4902493;29;20218;-69
2022/01/09 17:05:49;;;;;;;10.48;5.35;;;5.50;99.90;;;;;;4905206;29;20271;-69
2022/01/09 17:08:16;;;;;;;6.07;3.50;;;5.40;99.90;;;;;;4902141;29;20261;-69
2022/01/09 17:10:43;;;;;;;4.38;3.42;;;5.40;99.90;;;;;;4905650;29;20238;-69
2022/01/09 17:13:11;;;;;;;7.25;3.28;;;5.40;99.90;;;;;;4917350;29;20309;-69
2022/01/09 17:15:38;;;;;;;6.70;4.90;;;5.40;99.90;;;;;;4907244;29;20230;-69
2022/01/09 17:18:05;;;;;;;3.85;3.40;;;5.40;99.90;;;;;;4914086;29;20203;-69
2022/01/09 17:20:32;;;;;;;10.13;3.90;;;5.40;99.90;;;;;;4905098;29;20262;-69
2022/01/09 17:22:59;;;;;;;12.20;4.72;;;5.30;99.90;;;;;;4910295;29;20320;-69
2022/01/09 17:25:26;;;;;;;5.60;3.80;;;5.40;99.90;;;;;;4900985;29;20275;-69
2022/01/09 17:27:53;;;;;;;7.63;4.05;;;5.30;99.90;;;;;;4923857;29;20202;-69
2022/01/09 17:30:21;;;;;;;9.68;3.75;;;5.30;99.90;;;;;;4900218;29;20645;-70
2022/01/09 17:32:50;;;;;;;9.90;4.00;;;5.40;99.90;;;;;;4911941;29;20207;-70
2022/01/09 17:35:17;;;;;;;11.40;3.88;;;5.30;99.90;;;;;;4910056;29;20266;-69
2022/01/09 17:37:44;;;;;;;10.40;3.63;;;5.30;99.90;;;;;;4911167;29;20229;-69
2022/01/09 17:40:12;;;;;;;22.13;6.82;;;5.30;99.90;;;;;;4904528;29;20214;-70
2022/01/09 17:42:39;;;;;;;12.65;7.60;;;5.30;99.90;;;;;;4905338;29;20226;-69
2022/01/09 17:45:07;;;;;;;19.15;8.23;;;5.30;99.90;;;;;;4909068;29;20199;-69
2022/01/09 17:47:35;;;;;;;10.57;5.90;;;5.30;99.90;;;;;;4896538;29;20214;-70
2022/01/09 17:50:02;;;;;;;8.45;6.85;;;5.30;99.90;;;;;;4910280;29;20309;-70
2022/01/09 17:52:28;;;;;;;15.60;4.60;;;5.30;99.90;;;;;;4912043;29;20319;-70
2022/01/09 17:54:55;;;;;;;16.95;7.78;;;5.30;99.90;;;;;;4902314;29;20214;-69
2022/01/09 17:57:22;;;;;;;9.80;5.90;;;5.30;99.90;;;;;;4900648;29;20234;-70
2022/01/09 17:59:48;;;;;;;10.38;5.70;;;5.30;99.90;;;;;;4913492;29;20234;-69
2022/01/09 18:02:15;;;;;;;6.78;5.93;;;5.30;99.90;;;;;;4914121;29;20912;-69
2022/01/09 18:04:43;;;;;;;14.02;7.00;;;5.30;99.90;;;;;;4907220;29;20659;-69